Time;durP1;ratioP1;P1;durP2;ratioP2;P2;SDS_P1;SDS_P2;PMS_P1;PMS_P2;Temp;Humidity;BMP_temperature;BMP_pressure;BME280_temperature;BME280_humidity;BME280_pressure;Samples;Min_cycle;Max_cycle;Signal;HPM_P1;HPM_P2
2022/12/05 00:00:29;;;;;;;81.03;28.35;;;;;;;1.83;100.00;100913.31;6459502;22;20004;-78
2022/12/05 00:03:04;;;;;;;80.95;27.65;;;;;;;1.86;100.00;100903.03;6497446;22;20074;-77
2022/12/05 00:05:39;;;;;;;79.90;28.85;;;;;;;1.84;100.00;100900.41;6458684;22;20017;-78
2022/12/05 00:08:09;;;;;;;77.80;27.75;;;;;;;1.94;100.00;100898.75;6497158;22;20268;-77
2022/12/05 00:10:40;;;;;;;76.07;28.00;;;;;;;1.87;100.00;100897.00;6486654;22;20392;-78
2022/12/05 00:13:10;;;;;;;74.15;27.13;;;;;;;1.91;100.00;100903.88;6459420;22;20000;-76
2022/12/05 00:15:40;;;;;;;81.65;28.23;;;;;;;1.89;100.00;100900.44;6458766;22;20003;-76
2022/12/05 00:18:11;;;;;;;82.53;27.75;;;;;;;1.85;100.00;100897.00;6496856;22;19996;-76
2022/12/05 00:20:48;;;;;;;70.43;27.08;;;;;;;1.86;100.00;100895.28;6497878;22;20398;-76
2022/12/05 00:23:18;;;;;;;79.38;26.92;;;;;;;1.84;100.00;100894.44;6460126;22;20058;-76
2022/12/05 00:25:48;;;;;;;75.68;27.73;;;;;;;1.84;100.00;100897.00;6497281;22;20010;-77
2022/12/05 00:28:19;;;;;;;77.55;27.70;;;;;;;1.83;100.00;100884.97;6497359;22;20351;-77
2022/12/05 00:30:49;;;;;;;72.63;26.45;;;;;;;1.85;100.00;100897.00;6486361;22;19999;-77
2022/12/05 00:33:19;;;;;;;76.15;28.00;;;;;;;1.88;100.00;100898.72;6496677;22;19999;-77
2022/12/05 00:35:49;;;;;;;75.28;27.38;;;;;;;1.86;100.00;100895.28;6495776;22;20010;-77
2022/12/05 00:38:20;;;;;;;74.28;26.83;;;;;;;1.88;100.00;100898.72;6496475;22;20042;-76
2022/12/05 00:40:50;;;;;;;74.50;27.30;;;;;;;1.87;100.00;100894.44;6458791;22;20533;-77
2022/12/05 00:43:20;;;;;;;71.88;26.17;;;;;;;1.94;100.00;100896.16;6496419;22;20000;-77
2022/12/05 00:45:50;;;;;;;75.85;27.50;;;;;;;1.93;100.00;100894.44;6495786;22;20346;-77
2022/12/05 00:48:21;;;;;;;69.00;26.48;;;;;;;1.90;100.00;100894.44;6495894;22;20000;-76
2022/12/05 00:51:22;;;;;;;75.07;26.70;;;;;;;1.90;100.00;100897.03;6486511;22;20047;-77
2022/12/05 00:53:54;;;;;;;69.13;25.60;;;;;;;1.90;100.00;100902.16;6475833;22;20014;-77
2022/12/05 00:56:26;;;;;;;69.60;26.40;;;;;;;1.93;100.00;100897.03;6498914;22;20463;-76
2022/12/05 00:58:58;;;;;;;70.63;25.25;;;;;;;1.95;100.00;100891.03;6499194;22;20415;-76
2022/12/05 01:01:31;;;;;;;68.93;26.20;;;;;;;1.96;100.00;100891.91;6498972;22;20011;-78
2022/12/05 01:04:09;;;;;;;63.58;25.15;;;;;;;1.96;100.00;100903.06;6499397;22;20007;-76
2022/12/05 01:06:41;;;;;;;61.55;24.88;;;;;;;1.94;100.00;100896.16;6498658;22;20000;-77
2022/12/05 01:09:13;;;;;;;65.75;24.30;;;;;;;1.94;100.00;100898.75;6488449;22;20067;-77
2022/12/05 01:11:44;;;;;;;60.17;23.67;;;;;;;2.06;100.00;100898.81;6499345;22;20524;-77
2022/12/05 01:14:17;;;;;;;63.28;24.67;;;;;;;2.02;100.00;100897.06;6487639;22;20004;-77
2022/12/05 01:16:49;;;;;;;61.35;23.65;;;;;;;2.00;100.00;100898.78;6487422;22;20008;-77
2022/12/05 01:19:24;;;;;;;56.22;22.20;;;;;;;1.94;100.00;100906.47;6488016;22;20019;-77
2022/12/05 01:21:54;;;;;;;53.92;22.17;;;;;;;2.00;100.00;100903.94;6497422;22;20004;-77
2022/12/05 01:24:26;;;;;;;56.83;22.92;;;;;;;1.96;100.00;100902.22;6488433;22;20027;-77
2022/12/05 01:26:56;;;;;;;57.03;22.48;;;;;;;1.98;100.00;100901.34;6487729;22;20007;-76
2022/12/05 01:29:27;;;;;;;57.38;22.05;;;;;;;1.97;100.00;100906.50;6498550;22;20239;-76
2022/12/05 01:31:57;;;;;;;52.00;21.02;;;;;;;2.01;100.00;100903.09;6471827;22;20030;-76
2022/12/05 01:34:28;;;;;;;55.25;22.10;;;;;;;2.09;100.00;100903.97;6498920;22;19999;-77
2022/12/05 01:36:58;;;;;;;48.80;20.98;;;;;;;2.07;100.00;100901.41;6460705;22;20515;-76
2022/12/05 01:39:29;;;;;;;47.25;19.63;;;;;;;2.09;100.00;100898.81;6498639;22;19999;-77
2022/12/05 01:41:59;;;;;;;47.40;18.10;;;;;;;2.07;100.00;100895.38;6499289;22;19999;-76
2022/12/05 01:44:29;;;;;;;45.53;19.27;;;;;;;2.03;100.00;100904.78;6488471;22;20004;-77
2022/12/05 01:46:59;;;;;;;47.53;19.05;;;;;;;1.98;100.00;100905.66;6493465;22;20042;-76
2022/12/05 01:49:39;;;;;;;49.03;19.25;;;;;;;2.03;100.00;100906.53;6498798;22;20010;-76
2022/12/05 01:52:16;;;;;;;39.78;17.95;;;;;;;2.09;100.00;100899.69;6461837;22;20427;-77
2022/12/05 01:54:53;;;;;;;43.58;17.75;;;;;;;2.02;100.00;100903.06;6499488;22;20018;-76
2022/12/05 01:57:24;;;;;;;39.65;16.88;;;;;;;2.03;100.00;100891.06;6461221;22;20008;-76
2022/12/05 01:59:59;;;;;;;40.83;17.25;;;;;;;1.99;100.00;100897.06;6488371;22;20413;-77
2022/12/05 02:02:30;;;;;;;38.80;17.75;;;;;;;2.00;100.00;100894.47;6499019;22;20004;-77
2022/12/05 02:05:14;;;;;;;40.58;17.70;;;;;;;2.02;100.00;100891.94;6460234;22;20010;-76
2022/12/05 02:07:46;;;;;;;40.40;17.23;;;;;;;2.07;100.00;100890.22;6498843;22;19996;-77
2022/12/05 02:10:16;;;;;;;36.83;16.35;;;;;;;2.03;100.00;100888.50;6498702;22;20025;-76
2022/12/05 02:12:49;;;;;;;38.25;17.60;;;;;;;2.08;100.00;100897.09;6461301;22;20078;-78
2022/12/05 02:15:22;;;;;;;39.08;17.77;;;;;;;2.19;100.00;100891.09;6498655;22;20003;-77
2022/12/05 02:18:13;;;;;;;36.28;16.25;;;;;;;2.19;100.00;100890.25;6488093;22;20003;-76
2022/12/05 02:21:11;;;;;;;41.70;16.90;;;;;;;2.20;100.00;100892.81;6498736;22;20003;-77
2022/12/05 02:24:02;;;;;;;37.17;16.65;;;;;;;2.30;100.00;100898.91;6499080;22;20439;-76
2022/12/05 02:26:47;;;;;;;36.65;15.25;;;;;;;2.34;100.00;100901.47;6498069;22;20004;-75
2022/12/05 02:29:45;;;;;;;33.10;16.00;;;;;;;2.21;100.00;100894.56;6461319;22;20008;-77
2022/12/05 02:32:35;;;;;;;29.98;15.05;;;;;;;2.22;100.00;100895.41;6461291;22;20231;-77
2022/12/05 02:35:11;;;;;;;33.47;14.95;;;;;;;2.16;100.00;100891.09;6499025;22;20017;-76
2022/12/05 02:37:56;;;;;;;32.75;15.63;;;;;;;2.35;100.00;100885.13;6461056;22;20439;-78
2022/12/05 02:40:38;;;;;;;31.85;15.15;;;;;;;2.43;100.00;100890.31;6488645;22;20554;-76
2022/12/05 02:43:19;;;;;;;33.45;14.95;;;;;;;2.25;100.00;100885.13;6499547;22;20052;-76
2022/12/05 02:45:55;;;;;;;28.52;14.50;;;;;;;2.23;100.00;100886.81;6460981;22;20011;-76
2022/12/05 02:48:27;;;;;;;31.80;14.75;;;;;;;2.14;100.00;100879.94;6488033;22;20000;-76
2022/12/05 02:51:00;;;;;;;33.67;15.07;;;;;;;2.33;100.00;100878.28;6498872;22;20004;-76
2022/12/05 02:53:33;;;;;;;29.73;14.80;;;;;;;2.23;100.00;100874.81;6499506;22;20027;-76
2022/12/05 02:56:05;;;;;;;27.70;14.15;;;;;;;2.22;100.00;100872.22;6460701;22;20132;-77
2022/12/05 02:58:46;;;;;;;29.42;14.07;;;;;;;2.32;100.00;100881.72;6498606;22;20000;-78
2022/12/05 03:01:18;;;;;;;29.02;13.55;;;;;;;2.36;100.00;100878.28;6497542;22;20053;-76
2022/12/05 03:03:48;;;;;;;32.33;14.88;;;;;;;2.28;100.00;100885.13;6459574;22;20007;-77
2022/12/05 03:06:25;;;;;;;31.50;14.30;;;;;;;2.26;100.00;100877.41;6497698;22;20011;-76
2022/12/05 03:09:15;;;;;;;31.42;13.75;;;;;;;2.36;100.00;100880.84;6459777;22;20029;-76
2022/12/05 03:11:54;;;;;;;29.80;13.63;;;;;;;2.42;100.00;100879.16;6498123;22;19995;-76
2022/12/05 03:14:32;;;;;;;29.60;13.60;;;;;;;2.32;100.00;100879.97;6497931;22;19999;-75
2022/12/05 03:17:08;;;;;;;27.60;12.50;;;;;;;2.33;100.00;100883.44;6486129;22;20000;-75
2022/12/05 03:19:57;;;;;;;28.20;12.50;;;;;;;2.47;100.00;100884.31;6497809;22;20023;-75
2022/12/05 03:22:36;;;;;;;26.13;12.73;;;;;;;2.36;100.00;100879.13;6486342;22;20003;-75
2022/12/05 03:25:07;;;;;;;29.23;12.77;;;;;;;2.45;100.00;100875.69;6458645;22;20007;-77
2022/12/05 03:27:49;;;;;;;26.05;12.10;;;;;;;2.43;100.00;100880.00;6497794;22;19996;-78
2022/12/05 03:30:22;;;;;;;30.35;13.63;;;;;;;2.46;100.00;100885.16;6486964;22;20007;-77
2022/12/05 03:33:11;;;;;;;28.08;12.27;;;;;;;2.34;100.00;100880.84;6497720;22;20057;-77
2022/12/05 03:36:08;;;;;;;30.85;12.73;;;;;;;2.33;100.00;100875.69;6497663;22;20030;-77
2022/12/05 03:38:46;;;;;;;29.05;12.93;;;;;;;2.47;100.00;100874.00;6497325;22;20039;-76
2022/12/05 03:41:22;;;;;;;30.52;12.63;;;;;;;2.39;100.00;100878.28;6460135;22;20057;-77
2022/12/05 03:44:12;;;;;;;28.55;12.90;;;;;;;2.46;100.00;100877.41;6497914;22;19999;-76
2022/12/05 03:46:49;;;;;;;26.77;13.20;;;;;;;2.44;100.00;100873.97;6496929;22;20331;-77
2022/12/05 03:49:31;;;;;;;27.38;12.82;;;;;;;2.45;100.00;100873.13;6497775;22;19999;-77
2022/12/05 03:52:08;;;;;;;32.47;13.38;;;;;;;2.39;100.00;100866.25;6497669;22;20003;-76
2022/12/05 03:54:44;;;;;;;31.25;13.48;;;;;;;2.35;100.00;100867.09;6498359;22;20087;-76
2022/12/05 03:57:18;;;;;;;33.85;13.68;;;;;;;2.49;100.00;100860.25;6496516;22;20007;-77
2022/12/05 03:59:58;;;;;;;27.00;12.88;;;;;;;2.45;100.00;100865.38;6458715;22;20402;-77
2022/12/05 04:02:44;;;;;;;32.72;13.38;;;;;;;2.63;100.00;100867.97;6497124;22;20008;-78
2022/12/05 04:05:25;;;;;;;30.30;13.07;;;;;;;2.55;100.00;100869.72;6459912;22;19996;-77
2022/12/05 04:08:15;;;;;;;29.50;13.38;;;;;;;2.52;100.00;100864.56;6497382;22;20581;-75
2022/12/05 04:10:49;;;;;;;31.38;13.18;;;;;;;2.48;100.00;100868.00;6496808;22;20003;-76
2022/12/05 04:13:34;;;;;;;26.75;12.05;;;;;;;2.54;100.00;100862.81;6497861;22;20316;-76
2022/12/05 04:19:26;;;;;;;29.52;12.88;;;;;;;2.37;100.00;100869.69;6496066;22;20062;-77
2022/12/05 04:21:56;;;;;;;29.38;13.13;;;;;;;2.44;100.00;100863.66;6497082;22;20058;-77
2022/12/05 04:27:32;;;;;;;30.30;13.95;;;;;;;2.32;100.00;100871.41;6497345;22;20346;-76
2022/12/05 04:30:14;;;;;;;32.20;13.43;;;;;;;2.22;100.00;100872.22;6498395;22;20604;-76
2022/12/05 04:33:00;;;;;;;28.95;13.25;;;;;;;2.45;100.00;100870.53;6459907;22;20465;-76
2022/12/05 04:35:39;;;;;;;25.05;11.75;;;;;;;2.30;100.00;100876.53;6459803;22;19999;-77
2022/12/05 04:38:16;;;;;;;26.00;12.63;;;;;;;2.22;100.00;100875.69;6498012;22;20057;-77
2022/12/05 04:40:58;;;;;;;30.73;13.15;;;;;;;2.10;100.00;100870.47;6497710;22;20027;-76
2022/12/05 04:43:33;;;;;;;29.13;12.52;;;;;;;2.11;100.00;100882.50;6496288;22;20004;-78
2022/12/05 04:46:08;;;;;;;31.13;13.00;;;;;;;2.09;100.00;100878.19;6495560;22;20287;-77
2022/12/05 04:48:43;;;;;;;24.25;11.45;;;;;;;2.11;100.00;100877.34;6495066;22;20004;-79
2022/12/05 04:51:19;;;;;;;24.63;11.98;;;;;;;2.23;100.00;100877.38;6458390;22;20006;-76
2022/12/05 04:53:55;;;;;;;28.23;12.30;;;;;;;2.18;100.00;100883.38;6494723;22;20004;-77
2022/12/05 04:56:30;;;;;;;27.17;12.05;;;;;;;2.10;100.00;100878.22;6457422;22;20007;-77
2022/12/05 04:59:00;;;;;;;16.85;8.57;;;;;;;2.03;100.00;100879.03;6455501;22;20053;-77
2022/12/05 05:01:38;;;;;;;26.20;10.98;;;;;;;2.07;100.00;100879.91;6495083;22;20086;-77
2022/12/05 05:04:15;;;;;;;24.70;11.75;;;;;;;2.12;100.00;100875.63;6495378;22;20003;-77
2022/12/05 05:06:46;;;;;;;23.40;11.23;;;;;;;2.06;100.00;100878.19;6495494;22;20042;-77
2022/12/05 05:09:16;;;;;;;22.58;10.90;;;;;;;2.02;100.00;100873.88;6483572;22;20004;-76
2022/12/05 05:11:47;;;;;;;21.13;11.18;;;;;;;1.90;100.00;100885.00;6495203;22;20011;-77
2022/12/05 05:14:17;;;;;;;21.85;10.77;;;;;;;1.97;100.00;100894.47;6485581;22;20078;-76
2022/12/05 05:16:47;;;;;;;22.33;11.30;;;;;;;1.93;100.00;100877.28;6494595;22;20536;-77
2022/12/05 05:19:18;;;;;;;23.63;10.98;;;;;;;1.87;100.00;100886.69;6495409;22;20003;-76
2022/12/05 05:21:48;;;;;;;27.83;11.32;;;;;;;1.86;100.00;100885.00;6495598;22;20052;-77
2022/12/05 05:24:20;;;;;;;23.52;10.75;;;;;;;1.87;100.00;100882.44;6484997;22;20399;-77
2022/12/05 05:26:51;;;;;;;24.77;11.88;;;;;;;1.88;100.00;100884.16;6457745;22;20003;-77
2022/12/05 05:29:21;;;;;;;24.42;11.35;;;;;;;1.86;100.00;100887.56;6495424;22;20007;-76
2022/12/05 05:31:52;;;;;;;23.73;11.98;;;;;;;1.77;100.00;100887.50;6457148;22;20014;-77
2022/12/05 05:34:22;;;;;;;25.67;11.38;;;;;;;1.85;100.00;100883.25;6495326;22;20007;-77
2022/12/05 05:36:53;;;;;;;23.70;10.60;;;;;;;1.74;100.00;100879.78;6495098;22;20076;-77
2022/12/05 05:39:25;;;;;;;19.05;10.05;;;;;;;1.65;100.00;100884.91;6495341;22;20000;-77
2022/12/05 05:41:55;;;;;;;23.83;11.35;;;;;;;1.72;100.00;100886.63;6496547;22;20003;-77
2022/12/05 05:44:26;;;;;;;22.17;10.82;;;;;;;1.74;100.00;100882.34;6486417;22;20420;-77
2022/12/05 05:46:56;;;;;;;23.63;11.25;;;;;;;1.75;100.00;100886.66;6496074;22;20061;-78
2022/12/05 05:49:26;;;;;;;23.95;11.13;;;;;;;1.85;100.00;100888.41;6497388;22;20079;-77
2022/12/05 05:51:57;;;;;;;25.20;11.45;;;;;;;1.70;100.00;100887.47;6497378;22;20027;-77
2022/12/05 05:54:27;;;;;;;26.83;12.00;;;;;;;1.81;100.00;100886.69;6459605;22;20003;-77
2022/12/05 05:56:57;;;;;;;25.35;11.18;;;;;;;1.80;100.00;100895.28;6496202;22;20007;-77
2022/12/05 05:59:27;;;;;;;25.00;11.38;;;;;;;1.76;100.00;100892.66;6497167;22;20095;-77
2022/12/05 06:01:58;;;;;;;25.90;10.95;;;;;;;1.72;100.00;100885.78;6496770;22;20359;-77
2022/12/05 06:04:28;;;;;;;20.73;10.85;;;;;;;1.71;100.00;100886.66;6459157;22;20004;-77
2022/12/05 06:06:59;;;;;;;24.02;11.57;;;;;;;1.79;100.00;100888.41;6486303;22;20027;-77
2022/12/05 06:09:29;;;;;;;23.88;11.23;;;;;;;1.75;100.00;100884.06;6497271;22;20419;-78
2022/12/05 06:11:59;;;;;;;24.63;11.63;;;;;;;1.78;100.00;100884.06;6496100;22;19999;-78
2022/12/05 06:14:30;;;;;;;24.60;10.82;;;;;;;1.71;100.00;100882.34;6497214;22;20427;-77
2022/12/05 06:17:00;;;;;;;24.15;12.30;;;;;;;1.74;100.00;100884.91;6496815;22;20007;-77
2022/12/05 06:19:30;;;;;;;22.38;10.85;;;;;;;1.63;100.00;100881.44;6497147;22;19999;-76
2022/12/05 06:22:01;;;;;;;25.05;11.40;;;;;;;1.64;100.00;100878.03;6459194;22;20007;-76
2022/12/05 06:24:31;;;;;;;25.85;11.57;;;;;;;1.76;100.00;100888.34;6497556;22;19999;-76
2022/12/05 06:27:01;;;;;;;23.63;12.15;;;;;;;1.71;100.00;100886.66;6497566;22;20369;-75
2022/12/05 06:29:33;;;;;;;25.15;11.35;;;;;;;1.70;100.00;100887.47;6487350;22;20016;-76
2022/12/05 06:32:04;;;;;;;24.77;11.90;;;;;;;1.69;100.00;100891.78;6459499;22;20000;-77
2022/12/05 06:34:34;;;;;;;23.30;11.30;;;;;;;1.60;100.00;100891.72;6458802;22;20457;-76
2022/12/05 06:37:05;;;;;;;22.23;10.95;;;;;;;1.64;100.00;100890.03;6486575;22;20010;-77
2022/12/05 06:39:35;;;;;;;23.98;10.98;;;;;;;1.68;100.00;100884.03;6497063;22;20501;-77
2022/12/05 06:42:05;;;;;;;21.50;10.73;;;;;;;1.69;100.00;100890.91;6496140;22;20003;-77
2022/12/05 06:44:36;;;;;;;21.02;10.43;;;;;;;1.75;100.00;100894.38;6496929;22;20074;-78
2022/12/05 06:47:06;;;;;;;21.80;10.93;;;;;;;1.67;100.00;100908.06;6483357;22;20014;-77
2022/12/05 06:49:36;;;;;;;24.55;10.90;;;;;;;1.72;100.00;100898.66;6496132;22;20000;-77
2022/12/05 06:52:07;;;;;;;22.30;10.55;;;;;;;1.74;100.00;100902.94;6485961;22;20443;-76
2022/12/05 06:54:37;;;;;;;20.08;9.80;;;;;;;1.65;100.00;100905.50;6496250;22;20147;-77
2022/12/05 06:57:08;;;;;;;21.02;10.18;;;;;;;1.69;100.00;100902.06;6458370;22;20008;-77
2022/12/05 06:59:38;;;;;;;19.70;9.48;;;;;;;1.69;100.00;100903.78;6496983;22;20035;-77
2022/12/05 07:02:11;;;;;;;15.60;8.20;;;;;;;1.68;100.00;100907.22;6497221;22;20355;-78
2022/12/05 07:04:42;;;;;;;18.13;9.52;;;;;;;1.70;100.00;100908.94;6496918;22;20004;-77
2022/12/05 07:07:12;;;;;;;19.60;9.27;;;;;;;1.69;100.00;100907.22;6496746;22;20007;-78
2022/12/05 07:09:47;;;;;;;20.08;8.75;;;;;;;1.78;100.00;100907.25;6496046;22;20007;-77
2022/12/05 07:12:18;;;;;;;12.30;6.57;;;;;;;1.66;100.00;100909.78;6496975;22;20000;-78
2022/12/05 07:14:48;;;;;;;17.52;8.80;;;;;;;1.71;100.00;100914.97;6496379;22;20074;-75
2022/12/05 07:17:20;;;;;;;18.50;8.40;;;;;;;1.73;100.00;100919.25;6496503;22;20034;-75
2022/12/05 07:19:51;;;;;;;18.05;9.13;;;;;;;1.69;100.00;100917.53;6497362;22;19999;-77
2022/12/05 07:22:22;;;;;;;15.38;7.90;;;;;;;1.72;100.00;100920.13;6497185;22;20000;-77
2022/12/05 07:24:53;;;;;;;15.77;8.57;;;;;;;1.63;100.00;100921.78;6459029;22;20000;-77
2022/12/05 07:27:23;;;;;;;16.08;8.23;;;;;;;1.77;100.00;100915.84;6497223;22;20070;-77
2022/12/05 07:29:53;;;;;;;19.17;8.57;;;;;;;1.72;100.00;100917.53;6459830;22;19999;-77
2022/12/05 07:32:24;;;;;;;13.35;7.57;;;;;;;1.56;100.00;100925.19;6497092;22;20007;-78
2022/12/05 07:34:54;;;;;;;15.05;7.68;;;;;;;1.61;100.00;100929.50;6496168;22;19999;-77
2022/12/05 07:37:24;;;;;;;15.88;8.23;;;;;;;1.53;100.00;100932.88;6496925;22;20431;-76
2022/12/05 07:39:54;;;;;;;16.00;7.80;;;;;;;1.55;100.00;100937.19;6496473;22;20053;-76
2022/12/05 07:42:25;;;;;;;14.52;7.88;;;;;;;1.48;100.00;100934.56;6496496;22;20004;-77
2022/12/05 07:44:55;;;;;;;13.45;7.18;;;;;;;1.47;100.00;100938.00;6495579;22;20027;-77
2022/12/05 07:47:28;;;;;;;14.63;7.80;;;;;;;1.72;100.00;100938.16;6495229;22;20000;-77
2022/12/05 07:49:58;;;;;;;14.93;7.88;;;;;;;1.61;100.00;100939.78;6496291;22;20007;-76
2022/12/05 07:52:29;;;;;;;13.05;6.95;;;;;;;1.66;100.00;100938.13;6496436;22;19996;-76
2022/12/05 07:54:59;;;;;;;13.98;7.18;;;;;;;1.64;100.00;100937.25;6495844;22;20067;-76
2022/12/05 07:57:30;;;;;;;14.75;7.55;;;;;;;1.71;100.00;100931.28;6497052;22;20025;-76
2022/12/05 08:00:00;;;;;;;15.32;7.70;;;;;;;1.72;100.00;100938.16;6496637;22;20019;-77
2022/12/05 08:02:31;;;;;;;14.23;7.63;;;;;;;1.62;100.00;100936.41;6496123;22;20427;-76
2022/12/05 08:05:01;;;;;;;13.02;6.90;;;;;;;1.74;100.00;100940.75;6468672;22;20007;-76
2022/12/05 08:07:31;;;;;;;12.82;7.18;;;;;;;1.69;100.00;100943.28;6497508;22;20076;-76
2022/12/05 08:10:02;;;;;;;13.60;7.43;;;;;;;1.76;100.00;100934.72;6486623;22;20031;-77
2022/12/05 08:12:33;;;;;;;12.55;7.20;;;;;;;1.67;100.00;100939.84;6496490;22;20010;-78
2022/12/05 08:15:04;;;;;;;11.85;6.78;;;;;;;1.64;100.00;100939.84;6458217;22;20074;-78
2022/12/05 08:17:35;;;;;;;13.27;7.82;;;;;;;1.83;100.00;100936.50;6496278;22;20014;-76
2022/12/05 08:20:06;;;;;;;14.32;7.50;;;;;;;1.93;100.00;100933.09;6458816;22;20427;-77
2022/12/05 08:22:36;;;;;;;13.60;7.50;;;;;;;1.93;100.00;100931.41;6457779;22;20024;-77
2022/12/05 08:25:07;;;;;;;14.00;6.80;;;;;;;1.71;100.00;100936.44;6495718;22;20002;-76
2022/12/05 08:27:37;;;;;;;15.57;7.95;;;;;;;1.93;100.00;100927.94;6496695;22;19996;-76
2022/12/05 08:30:08;;;;;;;11.40;6.47;;;;;;;1.82;100.00;100939.94;6497027;22;20004;-78
2022/12/05 08:32:38;;;;;;;14.50;7.03;;;;;;;1.87;100.00;100933.09;6496740;22;20019;-77
2022/12/05 08:35:09;;;;;;;10.95;6.60;;;;;;;1.78;100.00;100940.75;6496087;22;20003;-77
2022/12/05 08:37:39;;;;;;;14.23;6.45;;;;;;;1.98;100.00;100941.75;6458624;22;20385;-77
2022/12/05 08:40:10;;;;;;;10.75;6.25;;;;;;;1.90;100.00;100944.28;6497484;22;20000;-77
2022/12/05 08:42:40;;;;;;;11.15;6.38;;;;;;;1.93;100.00;100940.81;6496293;22;20065;-76
2022/12/05 08:45:11;;;;;;;13.05;6.85;;;;;;;1.95;100.00;100937.41;6496166;22;20000;-75
2022/12/05 08:47:41;;;;;;;11.23;5.72;;;;;;;1.79;100.00;100942.50;6484901;22;20050;-78
2022/12/05 08:50:11;;;;;;;12.30;6.35;;;;;;;1.93;100.00;100940.81;6458690;22;20004;-77
2022/12/05 08:52:41;;;;;;;11.73;6.00;;;;;;;1.97;100.00;100951.16;6496225;22;20419;-77
2022/12/05 08:55:12;;;;;;;10.85;6.18;;;;;;;1.94;100.00;100943.44;6495167;22;20010;-77
2022/12/05 08:57:42;;;;;;;13.98;6.72;;;;;;;1.92;100.00;100947.72;6458029;22;20027;-78
2022/12/05 09:00:13;;;;;;;10.88;5.82;;;;;;;2.06;100.00;100952.94;6495182;22;19999;-78
2022/12/05 09:02:43;;;;;;;10.63;6.25;;;;;;;1.95;100.00;100949.44;6495594;22;20053;-76
2022/12/05 09:05:14;;;;;;;11.68;6.10;;;;;;;2.08;100.00;100957.25;6495854;22;20003;-77
2022/12/05 09:07:44;;;;;;;12.18;5.90;;;;;;;2.02;100.00;100951.19;6495790;22;20019;-77
2022/12/05 09:10:15;;;;;;;10.75;5.75;;;;;;;2.01;100.00;100952.06;6458357;22;20347;-76
2022/12/05 09:12:45;;;;;;;10.23;5.90;;;;;;;2.12;100.00;100946.09;6496058;22;20030;-77
2022/12/05 09:15:16;;;;;;;12.40;6.43;;;;;;;2.15;100.00;100950.41;6496733;22;20446;-76
2022/12/05 09:17:46;;;;;;;10.55;5.90;;;;;;;2.15;100.00;100952.97;6498166;22;20035;-77
2022/12/05 09:20:17;;;;;;;11.60;5.78;;;;;;;2.14;100.00;100957.25;6498225;22;20003;-77
2022/12/05 09:22:47;;;;;;;8.85;5.40;;;;;;;2.18;100.00;100950.41;6498421;22;20000;-78
2022/12/05 09:25:17;;;;;;;9.55;5.53;;;;;;;2.08;100.00;100946.06;6497139;22;20049;-77
2022/12/05 09:27:48;;;;;;;11.15;5.60;;;;;;;2.10;100.00;100950.38;6497946;22;20450;-76
2022/12/05 09:30:18;;;;;;;9.32;5.03;;;;;;;2.23;100.00;100953.84;6497221;22;20011;-77
2022/12/05 09:32:48;;;;;;;10.25;5.70;;;;;;;2.15;100.00;100948.66;6497965;22;20469;-77
2022/12/05 09:35:19;;;;;;;13.63;5.95;;;;;;;2.20;100.00;100952.13;6496265;22;20073;-76
2022/12/05 09:37:49;;;;;;;8.40;5.35;;;;;;;2.09;100.00;100955.50;6459329;22;20428;-78
2022/12/05 09:40:20;;;;;;;9.43;5.45;;;;;;;2.09;100.00;100951.22;6487280;22;19999;-76
2022/12/05 09:43:05;;;;;;;10.35;4.82;;;;;;;2.19;100.00;100941.81;6486925;22;20006;-77
2022/12/05 09:45:42;;;;;;;9.27;5.10;;;;;;;2.11;100.00;100951.22;6497056;22;20320;-77
2022/12/05 09:48:18;;;;;;;10.57;5.40;;;;;;;2.14;100.00;100946.09;6496674;22;20048;-78
2022/12/05 09:50:55;;;;;;;11.23;5.53;;;;;;;2.11;100.00;100953.78;6460073;22;20008;-76
2022/12/05 09:53:34;;;;;;;8.98;5.15;;;;;;;2.17;100.00;100948.69;6487441;22;20426;-78
2022/12/05 09:56:07;;;;;;;11.13;5.13;;;;;;;2.24;100.00;100950.41;6495833;22;20042;-77
2022/12/05 09:58:44;;;;;;;9.60;5.57;;;;;;;2.17;100.00;100946.09;6495689;22;20057;-78
2022/12/05 10:01:39;;;;;;;9.00;5.32;;;;;;;2.20;100.00;100943.53;6497206;22;20075;-76
2022/12/05 10:04:18;;;;;;;9.27;5.40;;;;;;;2.23;100.00;100946.13;6458987;22;19999;-77
2022/12/05 10:07:05;;;;;;;8.32;5.35;;;;;;;2.23;100.00;100940.97;6496859;22;20505;-78
2022/12/05 10:10:10;;;;;;;10.27;5.28;;;;;;;2.01;100.00;100942.59;6497598;22;20003;-78
2022/12/05 10:13:01;;;;;;;9.70;5.03;;;;;;;2.17;100.00;100939.22;6497542;22;20354;-77
2022/12/05 10:15:43;;;;;;;8.93;4.95;;;;;;;2.22;100.00;100937.53;6496058;22;20439;-76
2022/12/05 10:18:13;;;;;;;9.98;5.40;;;;;;;2.36;100.00;100929.84;6458655;22;20015;-78
2022/12/05 10:20:55;;;;;;;12.00;5.40;;;;;;;2.33;100.00;100922.09;6496996;22;20000;-77
2022/12/05 10:23:31;;;;;;;10.15;6.10;;;;;;;2.26;100.00;100928.06;6496923;22;20034;-77
2022/12/05 10:26:05;;;;;;;11.23;5.60;;;;;;;2.09;100.00;100934.88;6458198;22;20004;-77
2022/12/05 10:28:42;;;;;;;11.98;6.20;;;;;;;2.19;100.00;100936.66;6458947;22;20187;-79
2022/12/05 10:31:18;;;;;;;10.50;5.55;;;;;;;2.30;100.00;100935.00;6458746;22;20004;-78
2022/12/05 10:34:02;;;;;;;11.35;6.00;;;;;;;2.17;100.00;100941.78;6496698;22;20321;-77
2022/12/05 10:36:33;;;;;;;13.90;5.93;;;;;;;2.11;100.00;100935.75;6495982;22;20003;-77
2022/12/05 10:39:03;;;;;;;11.27;6.20;;;;;;;2.18;100.00;100942.69;6495805;22;20066;-77
2022/12/05 10:41:33;;;;;;;10.68;5.60;;;;;;;1.99;100.00;100948.59;6458678;22;20003;-78
2022/12/05 10:44:04;;;;;;;10.38;5.82;;;;;;;2.01;100.00;100949.47;6495857;22;20070;-78
2022/12/05 10:46:34;;;;;;;10.80;6.05;;;;;;;2.32;100.00;100939.28;6458235;22;20346;-78
2022/12/05 10:49:11;;;;;;;11.50;5.28;;;;;;;2.15;100.00;100947.81;6458150;22;20354;-77
2022/12/05 10:51:42;;;;;;;12.48;6.03;;;;;;;1.97;100.00;100950.31;6496929;22;20030;-77
2022/12/05 10:54:17;;;;;;;13.05;5.55;;;;;;;2.11;100.00;100954.66;6495053;22;20015;-77
2022/12/05 10:56:49;;;;;;;9.15;5.55;;;;;;;2.04;100.00;100946.91;6496121;22;20019;-78
2022/12/05 10:59:25;;;;;;;11.82;5.57;;;;;;;2.03;100.00;100940.03;6495697;22;20358;-77
2022/12/05 11:01:57;;;;;;;10.23;5.78;;;;;;;2.15;100.00;100942.66;6496791;22;20007;-77
2022/12/05 11:04:30;;;;;;;11.85;5.82;;;;;;;1.94;100.00;100939.97;6496126;22;20004;-77
2022/12/05 11:07:03;;;;;;;9.65;4.90;;;;;;;1.97;100.00;100934.84;6494995;22;20015;-76
2022/12/05 11:09:37;;;;;;;10.88;5.93;;;;;;;1.74;100.00;100936.44;6495656;22;20387;-78
2022/12/05 11:12:08;;;;;;;11.38;6.40;;;;;;;1.75;100.00;100937.31;6497171;22;19995;-77
2022/12/05 11:14:38;;;;;;;13.05;7.18;;;;;;;1.91;100.00;100932.22;6495919;22;20061;-78
2022/12/05 11:17:23;;;;;;;13.98;6.75;;;;;;;1.87;100.00;100933.09;6495646;22;20004;-77
2022/12/05 11:19:53;;;;;;;12.10;6.68;;;;;;;2.06;100.00;100940.03;6496648;22;20449;-77
2022/12/05 11:22:30;;;;;;;16.88;8.80;;;;;;;2.28;100.00;100934.09;6496695;22;20354;-76
2022/12/05 11:25:24;;;;;;;15.07;8.88;;;;;;;2.36;100.00;100925.53;6496062;22;20003;-77
2022/12/05 11:28:00;;;;;;;17.80;9.55;;;;;;;2.23;100.00;100928.06;6497263;22;20006;-76
2022/12/05 11:30:30;;;;;;;17.95;9.48;;;;;;;2.31;100.00;100927.25;6497430;22;20579;-76
2022/12/05 11:33:20;;;;;;;19.92;11.43;;;;;;;2.35;100.00;100933.28;6498978;22;19996;-77
2022/12/05 11:35:53;;;;;;;21.45;11.15;;;;;;;2.47;100.00;100912.69;6496284;22;20516;-78
2022/12/05 11:38:31;;;;;;;20.92;11.07;;;;;;;2.60;100.00;100910.13;6495921;22;20339;-76
2022/12/05 11:41:14;;;;;;;22.92;12.65;;;;;;;2.49;100.00;100914.41;6459378;22;19996;-77
2022/12/05 11:44:19;;;;;;;19.20;11.05;;;;;;;2.33;100.00;100911.78;6459532;22;20058;-76
2022/12/05 11:47:12;;;;;;;18.10;8.90;;;;;;;2.59;100.00;100915.28;6486086;22;20018;-75
2022/12/05 11:50:02;;;;;;;12.75;7.47;;;;;;;2.72;100.00;100898.97;6496837;22;20008;-76